sensor_id;sensor_type;location;lat;lon;timestamp;P1;durP1;ratioP1;P2;durP2;ratioP2
50429;SDS011;36359;41.556;-8.418;2023-04-30T00:00:21;4.55;;;1.90;;
50429;SDS011;36359;41.556;-8.418;2023-04-30T00:02:47;5.20;;;1.88;;
50429;SDS011;36359;41.556;-8.418;2023-04-30T00:05:12;2.88;;;1.80;;
50429;SDS011;36359;41.556;-8.418;2023-04-30T00:07:38;3.03;;;1.98;;
50429;SDS011;36359;41.556;-8.418;2023-04-30T00:10:08;1.92;;;1.30;;
50429;SDS011;36359;41.556;-8.418;2023-04-30T00:12:34;2.25;;;1.67;;
50429;SDS011;36359;41.556;-8.418;2023-04-30T00:15:00;3.10;;;1.73;;
50429;SDS011;36359;41.556;-8.418;2023-04-30T00:17:26;2.55;;;1.58;;
50429;SDS011;36359;41.556;-8.418;2023-04-30T00:19:51;2.60;;;1.60;;
50429;SDS011;36359;41.556;-8.418;2023-04-30T00:22:17;3.00;;;1.63;;
50429;SDS011;36359;41.556;-8.418;2023-04-30T00:24:43;4.20;;;1.80;;
50429;SDS011;36359;41.556;-8.418;2023-04-30T00:30:06;2.80;;;1.67;;
50429;SDS011;36359;41.556;-8.418;2023-04-30T00:32:32;2.80;;;1.50;;
50429;SDS011;36359;41.556;-8.418;2023-04-30T00:34:58;3.08;;;1.67;;
50429;SDS011;36359;41.556;-8.418;2023-04-30T00:37:24;2.72;;;1.50;;
50429;SDS011;36359;41.556;-8.418;2023-04-30T00:39:50;3.00;;;1.42;;
50429;SDS011;36359;41.556;-8.418;2023-04-30T00:42:15;3.92;;;1.42;;
50429;SDS011;36359;41.556;-8.418;2023-04-30T00:44:41;2.85;;;1.60;;
50429;SDS011;36359;41.556;-8.418;2023-04-30T00:47:06;2.80;;;1.35;;
50429;SDS011;36359;41.556;-8.418;2023-04-30T00:49:32;3.67;;;1.95;;
50429;SDS011;36359;41.556;-8.418;2023-04-30T00:51:58;3.47;;;1.77;;
50429;SDS011;36359;41.556;-8.418;2023-04-30T00:54:24;2.70;;;1.40;;
50429;SDS011;36359;41.556;-8.418;2023-04-30T00:56:50;3.33;;;2.00;;
50429;SDS011;36359;41.556;-8.418;2023-04-30T00:59:16;2.88;;;1.80;;
50429;SDS011;36359;41.556;-8.418;2023-04-30T01:01:42;1.83;;;1.38;;
50429;SDS011;36359;41.556;-8.418;2023-04-30T01:04:08;4.22;;;2.00;;
50429;SDS011;36359;41.556;-8.418;2023-04-30T01:06:35;3.80;;;1.70;;
50429;SDS011;36359;41.556;-8.418;2023-04-30T01:09:00;4.28;;;1.45;;
50429;SDS011;36359;41.556;-8.418;2023-04-30T01:14:11;4.03;;;1.90;;
50429;SDS011;36359;41.556;-8.418;2023-04-30T01:16:46;3.05;;;2.05;;
50429;SDS011;36359;41.556;-8.418;2023-04-30T01:30:31;4.10;;;2.03;;
50429;SDS011;36359;41.556;-8.418;2023-04-30T01:32:58;4.50;;;2.05;;
50429;SDS011;36359;41.556;-8.418;2023-04-30T01:41:08;5.55;;;2.90;;
50429;SDS011;36359;41.556;-8.418;2023-04-30T01:51:47;4.18;;;2.88;;
50429;SDS011;36359;41.556;-8.418;2023-04-30T01:57:41;5.25;;;2.90;;
50429;SDS011;36359;41.556;-8.418;2023-04-30T02:00:14;5.07;;;2.72;;
50429;SDS011;36359;41.556;-8.418;2023-04-30T02:02:42;4.15;;;3.00;;
50429;SDS011;36359;41.556;-8.418;2023-04-30T02:05:07;5.40;;;4.80;;
50429;SDS011;36359;41.556;-8.418;2023-04-30T02:07:38;3.70;;;2.72;;
50429;SDS011;36359;41.556;-8.418;2023-04-30T02:10:06;5.70;;;4.13;;
50429;SDS011;36359;41.556;-8.418;2023-04-30T02:12:33;5.50;;;3.78;;
50429;SDS011;36359;41.556;-8.418;2023-04-30T02:14:59;6.18;;;3.92;;
50429;SDS011;36359;41.556;-8.418;2023-04-30T02:17:26;3.17;;;2.08;;
50429;SDS011;36359;41.556;-8.418;2023-04-30T02:19:51;4.72;;;2.95;;
50429;SDS011;36359;41.556;-8.418;2023-04-30T02:22:17;7.13;;;2.60;;
50429;SDS011;36359;41.556;-8.418;2023-04-30T02:24:43;4.43;;;2.75;;
50429;SDS011;36359;41.556;-8.418;2023-04-30T02:27:09;6.50;;;3.08;;
50429;SDS011;36359;41.556;-8.418;2023-04-30T02:29:35;6.40;;;2.47;;
50429;SDS011;36359;41.556;-8.418;2023-04-30T02:32:00;2.80;;;1.90;;
50429;SDS011;36359;41.556;-8.418;2023-04-30T02:34:26;4.60;;;2.58;;
50429;SDS011;36359;41.556;-8.418;2023-04-30T02:36:52;3.70;;;2.45;;
50429;SDS011;36359;41.556;-8.418;2023-04-30T02:39:18;4.85;;;2.53;;
50429;SDS011;36359;41.556;-8.418;2023-04-30T02:41:43;3.42;;;2.40;;
50429;SDS011;36359;41.556;-8.418;2023-04-30T02:44:10;3.83;;;2.40;;
50429;SDS011;36359;41.556;-8.418;2023-04-30T02:46:36;3.03;;;2.03;;
50429;SDS011;36359;41.556;-8.418;2023-04-30T02:49:01;3.17;;;1.70;;
50429;SDS011;36359;41.556;-8.418;2023-04-30T02:51:27;4.57;;;2.33;;
50429;SDS011;36359;41.556;-8.418;2023-04-30T02:53:53;4.15;;;2.47;;
50429;SDS011;36359;41.556;-8.418;2023-04-30T02:56:19;3.80;;;2.67;;
50429;SDS011;36359;41.556;-8.418;2023-04-30T02:59:03;3.83;;;2.38;;
50429;SDS011;36359;41.556;-8.418;2023-04-30T03:01:29;4.13;;;2.72;;
50429;SDS011;36359;41.556;-8.418;2023-04-30T03:03:55;4.45;;;2.42;;
50429;SDS011;36359;41.556;-8.418;2023-04-30T03:06:22;5.35;;;2.30;;
50429;SDS011;36359;41.556;-8.418;2023-04-30T03:08:48;4.78;;;2.60;;
50429;SDS011;36359;41.556;-8.418;2023-04-30T03:11:13;7.95;;;3.20;;
50429;SDS011;36359;41.556;-8.418;2023-04-30T03:13:39;3.50;;;2.65;;
50429;SDS011;36359;41.556;-8.418;2023-04-30T03:16:05;2.95;;;2.40;;
50429;SDS011;36359;41.556;-8.418;2023-04-30T03:18:31;5.30;;;3.10;;
50429;SDS011;36359;41.556;-8.418;2023-04-30T03:20:57;3.92;;;2.85;;
50429;SDS011;36359;41.556;-8.418;2023-04-30T03:23:23;3.65;;;2.95;;
50429;SDS011;36359;41.556;-8.418;2023-04-30T03:25:51;4.18;;;3.10;;
50429;SDS011;36359;41.556;-8.418;2023-04-30T03:28:17;5.78;;;3.58;;
50429;SDS011;36359;41.556;-8.418;2023-04-30T03:30:43;4.65;;;3.03;;
50429;SDS011;36359;41.556;-8.418;2023-04-30T03:33:08;6.68;;;3.58;;
50429;SDS011;36359;41.556;-8.418;2023-04-30T03:35:34;5.15;;;3.47;;
50429;SDS011;36359;41.556;-8.418;2023-04-30T03:38:00;5.10;;;3.83;;
50429;SDS011;36359;41.556;-8.418;2023-04-30T03:40:26;5.05;;;3.28;;
50429;SDS011;36359;41.556;-8.418;2023-04-30T03:42:52;5.18;;;3.60;;
50429;SDS011;36359;41.556;-8.418;2023-04-30T03:45:18;4.20;;;3.25;;
50429;SDS011;36359;41.556;-8.418;2023-04-30T03:47:44;6.68;;;3.88;;
50429;SDS011;36359;41.556;-8.418;2023-04-30T03:50:09;4.82;;;2.65;;
50429;SDS011;36359;41.556;-8.418;2023-04-30T03:52:36;4.63;;;3.38;;
50429;SDS011;36359;41.556;-8.418;2023-04-30T03:55:03;6.22;;;3.90;;
50429;SDS011;36359;41.556;-8.418;2023-04-30T03:57:29;4.38;;;3.75;;
50429;SDS011;36359;41.556;-8.418;2023-04-30T03:59:55;7.32;;;3.03;;
50429;SDS011;36359;41.556;-8.418;2023-04-30T04:02:21;7.13;;;3.67;;
50429;SDS011;36359;41.556;-8.418;2023-04-30T04:04:47;9.02;;;4.07;;
50429;SDS011;36359;41.556;-8.418;2023-04-30T04:07:14;7.03;;;4.78;;
50429;SDS011;36359;41.556;-8.418;2023-04-30T04:09:40;5.57;;;4.30;;
50429;SDS011;36359;41.556;-8.418;2023-04-30T04:12:06;7.03;;;5.10;;
50429;SDS011;36359;41.556;-8.418;2023-04-30T04:14:32;7.95;;;5.00;;
50429;SDS011;36359;41.556;-8.418;2023-04-30T04:16:58;8.23;;;6.40;;
50429;SDS011;36359;41.556;-8.418;2023-04-30T04:19:30;7.50;;;5.10;;
50429;SDS011;36359;41.556;-8.418;2023-04-30T04:21:56;8.02;;;5.78;;
50429;SDS011;36359;41.556;-8.418;2023-04-30T04:24:23;7.80;;;4.65;;
50429;SDS011;36359;41.556;-8.418;2023-04-30T04:26:50;6.93;;;5.07;;
50429;SDS011;36359;41.556;-8.418;2023-04-30T04:29:17;9.80;;;5.32;;
50429;SDS011;36359;41.556;-8.418;2023-04-30T04:31:43;8.77;;;6.03;;
50429;SDS011;36359;41.556;-8.418;2023-04-30T04:36:52;6.70;;;5.40;;
50429;SDS011;36359;41.556;-8.418;2023-04-30T04:39:18;8.38;;;6.45;;
50429;SDS011;36359;41.556;-8.418;2023-04-30T04:41:44;7.90;;;5.13;;
50429;SDS011;36359;41.556;-8.418;2023-04-30T04:44:10;7.40;;;5.63;;
50429;SDS011;36359;41.556;-8.418;2023-04-30T04:46:36;8.85;;;7.30;;
50429;SDS011;36359;41.556;-8.418;2023-04-30T04:49:06;6.78;;;5.38;;
50429;SDS011;36359;41.556;-8.418;2023-04-30T04:51:32;7.70;;;6.50;;
50429;SDS011;36359;41.556;-8.418;2023-04-30T04:53:58;9.68;;;7.53;;
50429;SDS011;36359;41.556;-8.418;2023-04-30T04:56:24;10.77;;;7.82;;
50429;SDS011;36359;41.556;-8.418;2023-04-30T04:58:49;10.27;;;7.85;;
50429;SDS011;36359;41.556;-8.418;2023-04-30T05:01:15;5.68;;;3.63;;
50429;SDS011;36359;41.556;-8.418;2023-04-30T05:03:44;8.75;;;6.75;;
50429;SDS011;36359;41.556;-8.418;2023-04-30T05:06:10;10.63;;;6.05;;
50429;SDS011;36359;41.556;-8.418;2023-04-30T05:08:36;6.97;;;4.97;;
50429;SDS011;36359;41.556;-8.418;2023-04-30T05:11:02;7.75;;;4.75;;
50429;SDS011;36359;41.556;-8.418;2023-04-30T05:13:28;6.95;;;5.40;;
50429;SDS011;36359;41.556;-8.418;2023-04-30T05:15:54;5.78;;;4.10;;
50429;SDS011;36359;41.556;-8.418;2023-04-30T05:18:20;5.80;;;3.85;;
50429;SDS011;36359;41.556;-8.418;2023-04-30T05:20:45;4.07;;;3.33;;
50429;SDS011;36359;41.556;-8.418;2023-04-30T05:23:11;7.88;;;3.90;;
50429;SDS011;36359;41.556;-8.418;2023-04-30T05:25:37;6.18;;;4.30;;
50429;SDS011;36359;41.556;-8.418;2023-04-30T05:28:02;8.05;;;5.50;;
50429;SDS011;36359;41.556;-8.418;2023-04-30T05:30:29;6.45;;;4.88;;
50429;SDS011;36359;41.556;-8.418;2023-04-30T05:32:55;7.20;;;5.05;;
50429;SDS011;36359;41.556;-8.418;2023-04-30T05:35:21;7.13;;;5.13;;
50429;SDS011;36359;41.556;-8.418;2023-04-30T05:37:47;7.13;;;5.03;;
50429;SDS011;36359;41.556;-8.418;2023-04-30T05:40:13;6.68;;;4.47;;
50429;SDS011;36359;41.556;-8.418;2023-04-30T05:42:40;6.43;;;4.40;;
50429;SDS011;36359;41.556;-8.418;2023-04-30T05:45:08;10.48;;;7.15;;
50429;SDS011;36359;41.556;-8.418;2023-04-30T05:47:34;10.73;;;6.07;;
50429;SDS011;36359;41.556;-8.418;2023-04-30T05:50:00;13.88;;;7.70;;
50429;SDS011;36359;41.556;-8.418;2023-04-30T05:52:26;11.32;;;7.25;;
50429;SDS011;36359;41.556;-8.418;2023-04-30T05:54:51;15.38;;;7.90;;
50429;SDS011;36359;41.556;-8.418;2023-04-30T05:57:18;9.27;;;6.80;;
50429;SDS011;36359;41.556;-8.418;2023-04-30T05:59:44;9.95;;;5.68;;
50429;SDS011;36359;41.556;-8.418;2023-04-30T06:02:09;12.23;;;7.03;;
50429;SDS011;36359;41.556;-8.418;2023-04-30T06:04:35;9.65;;;6.30;;
50429;SDS011;36359;41.556;-8.418;2023-04-30T06:07:01;8.27;;;6.63;;
50429;SDS011;36359;41.556;-8.418;2023-04-30T06:09:26;8.85;;;6.38;;
50429;SDS011;36359;41.556;-8.418;2023-04-30T06:11:52;10.63;;;7.22;;
50429;SDS011;36359;41.556;-8.418;2023-04-30T06:14:19;11.00;;;7.00;;
50429;SDS011;36359;41.556;-8.418;2023-04-30T06:16:47;12.02;;;8.80;;
50429;SDS011;36359;41.556;-8.418;2023-04-30T06:19:13;13.13;;;8.77;;
50429;SDS011;36359;41.556;-8.418;2023-04-30T06:21:39;12.68;;;9.00;;
50429;SDS011;36359;41.556;-8.418;2023-04-30T06:24:07;11.95;;;8.23;;
50429;SDS011;36359;41.556;-8.418;2023-04-30T06:26:33;12.32;;;7.72;;
50429;SDS011;36359;41.556;-8.418;2023-04-30T06:28:59;11.07;;;7.53;;
50429;SDS011;36359;41.556;-8.418;2023-04-30T06:31:25;13.52;;;8.20;;
50429;SDS011;36359;41.556;-8.418;2023-04-30T06:33:51;12.63;;;8.00;;
50429;SDS011;36359;41.556;-8.418;2023-04-30T06:36:16;9.57;;;6.40;;
50429;SDS011;36359;41.556;-8.418;2023-04-30T06:38:43;8.05;;;6.00;;
50429;SDS011;36359;41.556;-8.418;2023-04-30T06:41:11;8.45;;;5.80;;
50429;SDS011;36359;41.556;-8.418;2023-04-30T06:43:36;13.55;;;9.07;;
50429;SDS011;36359;41.556;-8.418;2023-04-30T06:46:02;13.93;;;12.13;;
50429;SDS011;36359;41.556;-8.418;2023-04-30T06:48:29;16.33;;;14.68;;
50429;SDS011;36359;41.556;-8.418;2023-04-30T06:50:55;14.73;;;11.77;;
50429;SDS011;36359;41.556;-8.418;2023-04-30T06:53:21;13.23;;;11.65;;
50429;SDS011;36359;41.556;-8.418;2023-04-30T06:55:47;5.20;;;3.97;;
50429;SDS011;36359;41.556;-8.418;2023-04-30T06:58:13;11.40;;;8.20;;
50429;SDS011;36359;41.556;-8.418;2023-04-30T07:00:39;14.35;;;9.63;;
50429;SDS011;36359;41.556;-8.418;2023-04-30T07:03:05;14.50;;;9.88;;
50429;SDS011;36359;41.556;-8.418;2023-04-30T07:05:30;8.48;;;5.40;;
50429;SDS011;36359;41.556;-8.418;2023-04-30T07:07:57;9.80;;;6.72;;
50429;SDS011;36359;41.556;-8.418;2023-04-30T07:10:25;13.05;;;8.45;;
50429;SDS011;36359;41.556;-8.418;2023-04-30T07:12:51;13.25;;;8.70;;
50429;SDS011;36359;41.556;-8.418;2023-04-30T07:15:17;5.93;;;4.68;;
50429;SDS011;36359;41.556;-8.418;2023-04-30T07:20:19;9.13;;;5.78;;
50429;SDS011;36359;41.556;-8.418;2023-04-30T07:22:45;6.13;;;4.30;;
50429;SDS011;36359;41.556;-8.418;2023-04-30T07:25:11;6.65;;;5.60;;
50429;SDS011;36359;41.556;-8.418;2023-04-30T07:27:37;8.25;;;5.72;;
50429;SDS011;36359;41.556;-8.418;2023-04-30T07:30:04;5.38;;;3.38;;
50429;SDS011;36359;41.556;-8.418;2023-04-30T07:32:30;7.38;;;5.20;;
50429;SDS011;36359;41.556;-8.418;2023-04-30T07:34:56;7.35;;;5.25;;
50429;SDS011;36359;41.556;-8.418;2023-04-30T07:37:22;6.47;;;4.85;;
50429;SDS011;36359;41.556;-8.418;2023-04-30T07:39:48;7.88;;;5.88;;
50429;SDS011;36359;41.556;-8.418;2023-04-30T07:42:13;10.00;;;6.43;;
50429;SDS011;36359;41.556;-8.418;2023-04-30T07:44:39;8.60;;;6.25;;
50429;SDS011;36359;41.556;-8.418;2023-04-30T07:47:05;8.13;;;6.75;;
50429;SDS011;36359;41.556;-8.418;2023-04-30T07:49:31;12.52;;;7.85;;
50429;SDS011;36359;41.556;-8.418;2023-04-30T07:51:57;10.18;;;7.82;;
50429;SDS011;36359;41.556;-8.418;2023-04-30T07:54:25;11.55;;;7.97;;
50429;SDS011;36359;41.556;-8.418;2023-04-30T07:56:50;11.10;;;7.93;;
50429;SDS011;36359;41.556;-8.418;2023-04-30T07:59:16;8.68;;;7.78;;
50429;SDS011;36359;41.556;-8.418;2023-04-30T08:01:42;8.13;;;5.65;;
50429;SDS011;36359;41.556;-8.418;2023-04-30T08:04:07;9.25;;;6.38;;
50429;SDS011;36359;41.556;-8.418;2023-04-30T08:06:33;6.47;;;5.88;;
50429;SDS011;36359;41.556;-8.418;2023-04-30T08:08:59;8.60;;;6.18;;
50429;SDS011;36359;41.556;-8.418;2023-04-30T08:11:25;6.10;;;5.05;;
50429;SDS011;36359;41.556;-8.418;2023-04-30T08:13:51;5.68;;;4.97;;
50429;SDS011;36359;41.556;-8.418;2023-04-30T08:16:17;7.20;;;4.63;;
50429;SDS011;36359;41.556;-8.418;2023-04-30T08:18:42;5.40;;;4.60;;
50429;SDS011;36359;41.556;-8.418;2023-04-30T08:21:11;5.53;;;4.72;;
50429;SDS011;36359;41.556;-8.418;2023-04-30T08:23:37;5.13;;;4.60;;
50429;SDS011;36359;41.556;-8.418;2023-04-30T08:26:03;4.13;;;2.67;;
50429;SDS011;36359;41.556;-8.418;2023-04-30T08:28:29;4.95;;;3.30;;
50429;SDS011;36359;41.556;-8.418;2023-04-30T08:30:55;6.07;;;5.13;;
50429;SDS011;36359;41.556;-8.418;2023-04-30T08:33:21;5.03;;;3.45;;
50429;SDS011;36359;41.556;-8.418;2023-04-30T08:38:12;3.67;;;3.10;;
50429;SDS011;36359;41.556;-8.418;2023-04-30T08:40:37;4.65;;;2.90;;
50429;SDS011;36359;41.556;-8.418;2023-04-30T08:43:05;4.82;;;3.58;;
50429;SDS011;36359;41.556;-8.418;2023-04-30T08:45:33;5.13;;;4.00;;
50429;SDS011;36359;41.556;-8.418;2023-04-30T08:47:59;4.53;;;3.70;;
50429;SDS011;36359;41.556;-8.418;2023-04-30T08:50:26;4.88;;;3.55;;
50429;SDS011;36359;41.556;-8.418;2023-04-30T08:52:52;4.18;;;2.90;;
50429;SDS011;36359;41.556;-8.418;2023-04-30T08:55:18;4.03;;;2.90;;
50429;SDS011;36359;41.556;-8.418;2023-04-30T08:57:44;4.72;;;3.83;;
50429;SDS011;36359;41.556;-8.418;2023-04-30T09:00:09;5.13;;;3.78;;
50429;SDS011;36359;41.556;-8.418;2023-04-30T09:02:41;3.85;;;3.20;;
50429;SDS011;36359;41.556;-8.418;2023-04-30T09:05:11;5.30;;;3.92;;
50429;SDS011;36359;41.556;-8.418;2023-04-30T09:07:42;3.60;;;2.88;;
50429;SDS011;36359;41.556;-8.418;2023-04-30T09:12:42;5.13;;;3.38;;
50429;SDS011;36359;41.556;-8.418;2023-04-30T09:15:10;3.85;;;3.42;;
50429;SDS011;36359;41.556;-8.418;2023-04-30T09:17:36;6.32;;;4.68;;
50429;SDS011;36359;41.556;-8.418;2023-04-30T09:22:41;6.45;;;3.90;;
50429;SDS011;36359;41.556;-8.418;2023-04-30T09:25:08;4.18;;;3.25;;
50429;SDS011;36359;41.556;-8.418;2023-04-30T09:27:34;4.50;;;3.55;;
50429;SDS011;36359;41.556;-8.418;2023-04-30T09:30:00;5.03;;;3.22;;
50429;SDS011;36359;41.556;-8.418;2023-04-30T09:32:25;5.03;;;3.70;;
50429;SDS011;36359;41.556;-8.418;2023-04-30T09:34:51;3.20;;;2.70;;
50429;SDS011;36359;41.556;-8.418;2023-04-30T09:37:17;3.70;;;2.85;;
50429;SDS011;36359;41.556;-8.418;2023-04-30T09:39:49;3.78;;;2.70;;
50429;SDS011;36359;41.556;-8.418;2023-04-30T09:42:17;4.32;;;2.60;;
50429;SDS011;36359;41.556;-8.418;2023-04-30T09:44:44;3.72;;;2.67;;
50429;SDS011;36359;41.556;-8.418;2023-04-30T09:47:14;3.10;;;2.70;;
50429;SDS011;36359;41.556;-8.418;2023-04-30T09:52:08;4.28;;;2.95;;
50429;SDS011;36359;41.556;-8.418;2023-04-30T09:54:35;5.70;;;3.70;;
50429;SDS011;36359;41.556;-8.418;2023-04-30T09:57:02;5.05;;;3.83;;
50429;SDS011;36359;41.556;-8.418;2023-04-30T09:59:32;5.82;;;3.53;;
50429;SDS011;36359;41.556;-8.418;2023-04-30T10:02:00;4.97;;;3.70;;
50429;SDS011;36359;41.556;-8.418;2023-04-30T10:04:28;5.57;;;4.15;;
50429;SDS011;36359;41.556;-8.418;2023-04-30T10:06:56;3.80;;;2.60;;
50429;SDS011;36359;41.556;-8.418;2023-04-30T10:09:25;5.40;;;4.30;;
50429;SDS011;36359;41.556;-8.418;2023-04-30T10:11:58;6.68;;;4.78;;
50429;SDS011;36359;41.556;-8.418;2023-04-30T10:14:26;7.75;;;5.97;;
50429;SDS011;36359;41.556;-8.418;2023-04-30T10:16:56;9.55;;;7.50;;
50429;SDS011;36359;41.556;-8.418;2023-04-30T10:19:31;8.13;;;5.90;;
50429;SDS011;36359;41.556;-8.418;2023-04-30T10:22:04;11.00;;;6.22;;
50429;SDS011;36359;41.556;-8.418;2023-04-30T10:24:29;7.65;;;5.20;;
50429;SDS011;36359;41.556;-8.418;2023-04-30T10:26:55;5.75;;;4.85;;
50429;SDS011;36359;41.556;-8.418;2023-04-30T10:29:22;7.32;;;5.55;;
50429;SDS011;36359;41.556;-8.418;2023-04-30T10:31:48;9.10;;;7.70;;
50429;SDS011;36359;41.556;-8.418;2023-04-30T10:34:34;11.18;;;7.28;;
50429;SDS011;36359;41.556;-8.418;2023-04-30T10:37:29;12.07;;;8.95;;
50429;SDS011;36359;41.556;-8.418;2023-04-30T10:40:01;9.50;;;7.05;;
50429;SDS011;36359;41.556;-8.418;2023-04-30T10:42:29;5.10;;;3.60;;
50429;SDS011;36359;41.556;-8.418;2023-04-30T10:44:55;6.88;;;4.00;;
50429;SDS011;36359;41.556;-8.418;2023-04-30T10:47:26;7.95;;;4.50;;
50429;SDS011;36359;41.556;-8.418;2023-04-30T10:50:00;8.20;;;4.68;;
50429;SDS011;36359;41.556;-8.418;2023-04-30T10:52:32;4.72;;;3.90;;
50429;SDS011;36359;41.556;-8.418;2023-04-30T10:54:59;7.53;;;4.78;;
50429;SDS011;36359;41.556;-8.418;2023-04-30T10:57:29;4.00;;;2.67;;
50429;SDS011;36359;41.556;-8.418;2023-04-30T11:02:40;2.63;;;2.20;;
50429;SDS011;36359;41.556;-8.418;2023-04-30T11:05:13;4.45;;;2.65;;
50429;SDS011;36359;41.556;-8.418;2023-04-30T11:07:49;4.57;;;2.92;;
50429;SDS011;36359;41.556;-8.418;2023-04-30T11:10:21;4.47;;;3.10;;
50429;SDS011;36359;41.556;-8.418;2023-04-30T11:12:48;4.50;;;3.22;;
50429;SDS011;36359;41.556;-8.418;2023-04-30T11:15:25;4.72;;;3.05;;
50429;SDS011;36359;41.556;-8.418;2023-04-30T11:17:56;5.50;;;3.20;;
50429;SDS011;36359;41.556;-8.418;2023-04-30T11:20:26;3.65;;;2.83;;
50429;SDS011;36359;41.556;-8.418;2023-04-30T11:25:40;4.50;;;3.00;;
50429;SDS011;36359;41.556;-8.418;2023-04-30T11:28:12;4.45;;;2.92;;
50429;SDS011;36359;41.556;-8.418;2023-04-30T11:30:49;3.95;;;2.47;;
50429;SDS011;36359;41.556;-8.418;2023-04-30T11:33:15;2.92;;;2.22;;
50429;SDS011;36359;41.556;-8.418;2023-04-30T11:35:42;2.95;;;1.98;;
50429;SDS011;36359;41.556;-8.418;2023-04-30T11:38:08;2.05;;;1.70;;
50429;SDS011;36359;41.556;-8.418;2023-04-30T11:40:36;3.10;;;1.90;;
50429;SDS011;36359;41.556;-8.418;2023-04-30T11:43:03;3.25;;;2.13;;
50429;SDS011;36359;41.556;-8.418;2023-04-30T11:45:29;4.43;;;2.05;;
50429;SDS011;36359;41.556;-8.418;2023-04-30T11:47:54;2.83;;;2.08;;
50429;SDS011;36359;41.556;-8.418;2023-04-30T11:50:25;3.80;;;1.95;;
50429;SDS011;36359;41.556;-8.418;2023-04-30T11:52:57;2.75;;;2.05;;
50429;SDS011;36359;41.556;-8.418;2023-04-30T11:57:53;2.92;;;1.38;;
50429;SDS011;36359;41.556;-8.418;2023-04-30T12:00:26;4.03;;;1.70;;
50429;SDS011;36359;41.556;-8.418;2023-04-30T12:02:56;2.03;;;1.25;;
50429;SDS011;36359;41.556;-8.418;2023-04-30T12:05:24;2.30;;;1.70;;
50429;SDS011;36359;41.556;-8.418;2023-04-30T12:10:30;2.55;;;1.30;;
50429;SDS011;36359;41.556;-8.418;2023-04-30T12:12:56;4.93;;;2.00;;
50429;SDS011;36359;41.556;-8.418;2023-04-30T12:15:23;2.45;;;1.10;;
50429;SDS011;36359;41.556;-8.418;2023-04-30T12:17:56;1.50;;;1.17;;
50429;SDS011;36359;41.556;-8.418;2023-04-30T12:20:24;1.60;;;0.88;;
50429;SDS011;36359;41.556;-8.418;2023-04-30T12:22:51;1.85;;;1.20;;
50429;SDS011;36359;41.556;-8.418;2023-04-30T12:25:18;1.98;;;1.13;;
50429;SDS011;36359;41.556;-8.418;2023-04-30T12:27:46;2.00;;;1.10;;
50429;SDS011;36359;41.556;-8.418;2023-04-30T12:30:13;2.30;;;1.40;;
50429;SDS011;36359;41.556;-8.418;2023-04-30T12:32:44;2.15;;;1.10;;
50429;SDS011;36359;41.556;-8.418;2023-04-30T12:35:14;1.45;;;1.10;;
50429;SDS011;36359;41.556;-8.418;2023-04-30T12:37:46;2.35;;;0.93;;
50429;SDS011;36359;41.556;-8.418;2023-04-30T12:40:19;1.80;;;0.90;;
50429;SDS011;36359;41.556;-8.418;2023-04-30T12:42:46;1.13;;;0.70;;
50429;SDS011;36359;41.556;-8.418;2023-04-30T12:45:13;1.70;;;0.65;;
50429;SDS011;36359;41.556;-8.418;2023-04-30T12:48:18;1.30;;;0.90;;
50429;SDS011;36359;41.556;-8.418;2023-04-30T12:50:54;2.92;;;0.70;;
50429;SDS011;36359;41.556;-8.418;2023-04-30T12:53:20;1.25;;;1.00;;
50429;SDS011;36359;41.556;-8.418;2023-04-30T12:58:36;1.10;;;0.73;;
50429;SDS011;36359;41.556;-8.418;2023-04-30T13:01:02;1.75;;;0.90;;
50429;SDS011;36359;41.556;-8.418;2023-04-30T13:03:28;1.10;;;0.50;;
50429;SDS011;36359;41.556;-8.418;2023-04-30T13:05:54;1.70;;;0.85;;
50429;SDS011;36359;41.556;-8.418;2023-04-30T13:08:19;0.77;;;0.63;;
50429;SDS011;36359;41.556;-8.418;2023-04-30T13:10:46;0.80;;;0.52;;
50429;SDS011;36359;41.556;-8.418;2023-04-30T13:13:13;0.82;;;0.45;;
50429;SDS011;36359;41.556;-8.418;2023-04-30T13:15:40;0.57;;;0.43;;
50429;SDS011;36359;41.556;-8.418;2023-04-30T13:18:07;1.02;;;0.80;;
50429;SDS011;36359;41.556;-8.418;2023-04-30T13:20:36;1.25;;;0.60;;
50429;SDS011;36359;41.556;-8.418;2023-04-30T13:23:03;1.30;;;0.80;;
50429;SDS011;36359;41.556;-8.418;2023-04-30T13:25:33;1.85;;;0.40;;
50429;SDS011;36359;41.556;-8.418;2023-04-30T13:28:00;1.10;;;0.75;;
50429;SDS011;36359;41.556;-8.418;2023-04-30T13:30:25;1.08;;;0.60;;
50429;SDS011;36359;41.556;-8.418;2023-04-30T13:32:51;1.40;;;1.00;;
50429;SDS011;36359;41.556;-8.418;2023-04-30T13:35:18;2.92;;;0.77;;
50429;SDS011;36359;41.556;-8.418;2023-04-30T13:37:44;2.63;;;0.85;;
50429;SDS011;36359;41.556;-8.418;2023-04-30T13:40:12;1.45;;;0.90;;
50429;SDS011;36359;41.556;-8.418;2023-04-30T13:42:37;2.08;;;0.68;;
50429;SDS011;36359;41.556;-8.418;2023-04-30T13:45:05;1.63;;;0.88;;
50429;SDS011;36359;41.556;-8.418;2023-04-30T13:47:32;1.38;;;0.90;;
50429;SDS011;36359;41.556;-8.418;2023-04-30T13:49:58;1.30;;;1.00;;
50429;SDS011;36359;41.556;-8.418;2023-04-30T13:52:25;1.92;;;0.98;;
50429;SDS011;36359;41.556;-8.418;2023-04-30T13:54:50;2.08;;;1.20;;
50429;SDS011;36359;41.556;-8.418;2023-04-30T13:57:16;1.27;;;0.70;;
50429;SDS011;36359;41.556;-8.418;2023-04-30T13:59:42;1.67;;;1.27;;
50429;SDS011;36359;41.556;-8.418;2023-04-30T14:02:08;1.20;;;0.90;;
50429;SDS011;36359;41.556;-8.418;2023-04-30T14:04:35;1.80;;;1.08;;
50429;SDS011;36359;41.556;-8.418;2023-04-30T14:07:01;1.75;;;0.88;;
50429;SDS011;36359;41.556;-8.418;2023-04-30T14:09:27;1.38;;;0.82;;
50429;SDS011;36359;41.556;-8.418;2023-04-30T14:11:53;1.50;;;1.08;;
50429;SDS011;36359;41.556;-8.418;2023-04-30T14:14:21;2.13;;;0.80;;
50429;SDS011;36359;41.556;-8.418;2023-04-30T14:16:47;1.73;;;1.00;;
50429;SDS011;36359;41.556;-8.418;2023-04-30T14:19:13;2.20;;;1.30;;
50429;SDS011;36359;41.556;-8.418;2023-04-30T14:21:39;2.75;;;1.15;;
50429;SDS011;36359;41.556;-8.418;2023-04-30T14:24:04;2.58;;;1.10;;
50429;SDS011;36359;41.556;-8.418;2023-04-30T14:26:30;1.63;;;1.10;;
50429;SDS011;36359;41.556;-8.418;2023-04-30T14:28:56;3.15;;;1.10;;
50429;SDS011;36359;41.556;-8.418;2023-04-30T14:31:22;1.80;;;1.20;;
50429;SDS011;36359;41.556;-8.418;2023-04-30T14:33:48;1.48;;;1.08;;
50429;SDS011;36359;41.556;-8.418;2023-04-30T14:36:13;2.88;;;1.23;;
50429;SDS011;36359;41.556;-8.418;2023-04-30T14:38:39;1.95;;;1.20;;
50429;SDS011;36359;41.556;-8.418;2023-04-30T14:41:05;1.45;;;0.90;;
50429;SDS011;36359;41.556;-8.418;2023-04-30T14:43:31;2.75;;;1.02;;
50429;SDS011;36359;41.556;-8.418;2023-04-30T14:45:56;1.60;;;0.90;;
50429;SDS011;36359;41.556;-8.418;2023-04-30T14:48:22;3.38;;;1.33;;
50429;SDS011;36359;41.556;-8.418;2023-04-30T14:50:48;2.35;;;1.42;;
50429;SDS011;36359;41.556;-8.418;2023-04-30T14:53:15;2.35;;;1.10;;
50429;SDS011;36359;41.556;-8.418;2023-04-30T14:55:41;2.88;;;1.50;;
50429;SDS011;36359;41.556;-8.418;2023-04-30T14:58:07;1.83;;;1.13;;
50429;SDS011;36359;41.556;-8.418;2023-04-30T15:00:33;2.10;;;1.40;;
50429;SDS011;36359;41.556;-8.418;2023-04-30T15:02:58;1.88;;;1.17;;
50429;SDS011;36359;41.556;-8.418;2023-04-30T15:05:24;3.83;;;1.20;;
50429;SDS011;36359;41.556;-8.418;2023-04-30T15:07:51;2.35;;;1.30;;
50429;SDS011;36359;41.556;-8.418;2023-04-30T15:10:16;2.72;;;1.20;;
50429;SDS011;36359;41.556;-8.418;2023-04-30T15:12:43;1.30;;;1.10;;
50429;SDS011;36359;41.556;-8.418;2023-04-30T15:15:09;2.17;;;1.00;;
50429;SDS011;36359;41.556;-8.418;2023-04-30T15:17:35;3.17;;;0.93;;
50429;SDS011;36359;41.556;-8.418;2023-04-30T15:20:05;1.83;;;0.88;;
50429;SDS011;36359;41.556;-8.418;2023-04-30T15:22:31;2.30;;;0.90;;
50429;SDS011;36359;41.556;-8.418;2023-04-30T15:25:00;2.33;;;0.90;;
50429;SDS011;36359;41.556;-8.418;2023-04-30T15:27:26;1.58;;;1.13;;
50429;SDS011;36359;41.556;-8.418;2023-04-30T15:29:52;2.58;;;1.05;;
50429;SDS011;36359;41.556;-8.418;2023-04-30T15:32:18;1.38;;;1.10;;
50429;SDS011;36359;41.556;-8.418;2023-04-30T15:34:44;4.13;;;1.17;;